Time;durP1;ratioP1;P1;durP2;ratioP2;P2;SDS_P1;SDS_P2;PMS_P1;PMS_P2;Temp;Humidity;BMP_temperature;BMP_pressure;BME280_temperature;BME280_humidity;BME280_pressure;Samples;Min_cycle;Max_cycle;Signal;HPM_P1;HPM_P2
2021/12/07 00:01:38;;;;;;;28.98;16.08;;;3.60;99.90;;;;;;5135955;27;20042;-68
2021/12/07 00:04:05;;;;;;;26.23;16.90;;;3.50;99.90;;;;;;5135616;27;20035;-68
2021/12/07 00:06:31;;;;;;;24.25;15.63;;;3.60;99.90;;;;;;5134160;27;20074;-68
2021/12/07 00:08:57;;;;;;;30.33;17.35;;;3.50;99.90;;;;;;5135918;27;20497;-68
2021/12/07 00:11:24;;;;;;;24.92;15.52;;;3.50;99.90;;;;;;5135544;27;20042;-68
2021/12/07 00:13:50;;;;;;;23.55;15.25;;;3.50;99.90;;;;;;5135117;27;20439;-68
2021/12/07 00:16:18;;;;;;;24.98;16.73;;;3.50;99.90;;;;;;5133797;27;20118;-68
2021/12/07 00:18:45;;;;;;;28.25;16.75;;;3.40;99.90;;;;;;5135339;27;20031;-68
2021/12/07 00:21:11;;;;;;;27.75;17.15;;;3.40;99.90;;;;;;5135314;27;20122;-68
2021/12/07 00:23:37;;;;;;;25.50;15.95;;;3.40;99.90;;;;;;5135801;27;20046;-68
2021/12/07 00:26:04;;;;;;;23.42;15.55;;;3.40;99.90;;;;;;5134942;27;20058;-68
2021/12/07 00:28:30;;;;;;;24.05;14.77;;;3.30;99.90;;;;;;5135073;27;20496;-68
2021/12/07 00:31:03;;;;;;;22.90;15.50;;;3.30;99.90;;;;;;5134625;27;20035;-68
2021/12/07 00:33:36;;;;;;;24.80;15.18;;;3.30;99.90;;;;;;5135527;27;20043;-68
2021/12/07 00:36:02;;;;;;;26.50;16.75;;;3.30;99.90;;;;;;5134119;27;20148;-68
2021/12/07 00:38:28;;;;;;;24.23;15.13;;;3.30;99.90;;;;;;5134849;27;20110;-68
2021/12/07 00:40:56;;;;;;;25.30;15.65;;;3.20;99.90;;;;;;5135779;27;20039;-68
2021/12/07 00:43:21;;;;;;;24.65;15.25;;;3.30;99.90;;;;;;5135154;27;20039;-68
2021/12/07 00:45:49;;;;;;;23.40;16.10;;;3.30;99.90;;;;;;5134615;27;20031;-67
2021/12/07 00:48:15;;;;;;;23.25;15.15;;;3.30;99.90;;;;;;5135401;27;20035;-68
2021/12/07 00:50:45;;;;;;;22.33;14.95;;;3.30;99.90;;;;;;5134640;27;20480;-68
2021/12/07 00:53:11;;;;;;;26.02;17.20;;;3.20;99.90;;;;;;5135133;27;20047;-68
2021/12/07 00:55:43;;;;;;;24.85;15.88;;;3.30;99.90;;;;;;5134503;27;20118;-67
2021/12/07 00:58:17;;;;;;;25.58;15.63;;;3.30;99.90;;;;;;5134936;27;20035;-68
2021/12/07 01:00:49;;;;;;;25.25;16.15;;;3.30;99.90;;;;;;5133692;27;20034;-68
2021/12/07 01:03:15;;;;;;;21.52;14.25;;;3.30;99.90;;;;;;5135217;27;20441;-68
2021/12/07 01:05:47;;;;;;;23.88;14.15;;;3.30;99.90;;;;;;5134438;27;20136;-68
2021/12/07 01:09:09;;;;;;;22.25;14.20;;;3.30;99.90;;;;;;5134799;27;20031;-68
2021/12/07 01:24:41;;;;;;;19.58;13.40;;;3.10;99.90;;;;;;5133130;27;20472;-68
2021/12/07 01:27:12;;;;;;;19.33;12.50;;;3.00;99.90;;;;;;5133760;27;20051;-68
2021/12/07 01:29:40;;;;;;;20.92;13.75;;;2.90;99.90;;;;;;5134899;27;20035;-68
2021/12/07 01:32:20;;;;;;;20.40;13.65;;;2.90;99.90;;;;;;5134631;27;20047;-68
2021/12/07 01:35:42;;;;;;;18.98;12.40;;;2.80;99.90;;;;;;5134790;27;20499;-68
2021/12/07 01:37:54;;;;;;;21.92;14.05;;;2.80;99.90;;;;;;5124608;28;20126;-68
2021/12/07 01:59:35;;;;;;;19.73;12.90;;;2.60;99.90;;;;;;5117994;27;20430;-68
2021/12/07 02:02:06;;;;;;;20.98;13.10;;;2.50;99.90;;;;;;5138879;27;20476;-68
2021/12/07 02:04:32;;;;;;;19.63;13.10;;;2.50;99.90;;;;;;5138135;27;20039;-68
2021/12/07 02:06:58;;;;;;;20.45;13.82;;;2.50;99.90;;;;;;5137563;27;20042;-68
2021/12/07 02:09:24;;;;;;;20.92;13.70;;;2.50;99.90;;;;;;5138220;27;20043;-68
2021/12/07 02:11:57;;;;;;;18.92;12.60;;;2.50;99.90;;;;;;5137069;27;20366;-68
2021/12/07 02:14:23;;;;;;;19.30;11.93;;;2.50;99.90;;;;;;5137461;27;20100;-68
2021/12/07 02:16:55;;;;;;;18.65;12.27;;;2.40;99.90;;;;;;5137772;27;20461;-68
2021/12/07 02:19:22;;;;;;;20.42;13.10;;;2.40;99.90;;;;;;5138412;27;20054;-68
2021/12/07 02:21:49;;;;;;;21.60;13.93;;;2.30;99.90;;;;;;5136585;27;20043;-68
2021/12/07 02:24:14;;;;;;;20.17;12.85;;;2.30;99.90;;;;;;5136810;27;20377;-68
2021/12/07 02:26:41;;;;;;;20.45;13.52;;;2.20;99.90;;;;;;5135823;27;20058;-68
2021/12/07 02:29:06;;;;;;;20.40;13.32;;;2.30;99.90;;;;;;5137343;27;20452;-68
2021/12/07 02:31:33;;;;;;;19.45;13.27;;;2.20;99.90;;;;;;5137840;27;20047;-68
2021/12/07 02:34:00;;;;;;;20.80;12.40;;;2.20;99.90;;;;;;5137611;27;20431;-68
2021/12/07 02:36:26;;;;;;;17.67;12.35;;;2.30;99.90;;;;;;5135757;27;20118;-68
2021/12/07 02:38:52;;;;;;;18.00;12.98;;;2.30;99.90;;;;;;5137954;27;20113;-68
2021/12/07 02:41:17;;;;;;;19.60;13.15;;;2.30;99.90;;;;;;5137426;27;20126;-68
2021/12/07 02:43:44;;;;;;;16.88;11.88;;;2.40;99.90;;;;;;5137562;27;20039;-68
2021/12/07 02:46:09;;;;;;;19.90;13.30;;;2.40;99.90;;;;;;5137186;27;20126;-68
2021/12/07 02:48:35;;;;;;;19.65;13.43;;;2.40;99.90;;;;;;5136943;27;20118;-68
2021/12/07 02:51:02;;;;;;;18.80;12.82;;;2.40;99.90;;;;;;5137162;27;20038;-68
2021/12/07 02:53:28;;;;;;;18.73;12.50;;;2.40;99.90;;;;;;5135935;27;20039;-68
2021/12/07 02:55:56;;;;;;;16.75;11.73;;;2.40;99.90;;;;;;5136839;27;20080;-67
2021/12/07 02:58:22;;;;;;;18.00;12.63;;;2.40;99.90;;;;;;5136037;27;20050;-68
2021/12/07 03:00:59;;;;;;;17.58;11.68;;;2.40;99.90;;;;;;5137110;27;20038;-68
2021/12/07 03:03:26;;;;;;;15.65;11.27;;;2.40;99.90;;;;;;5137279;27;20038;-67
2021/12/07 03:27:21;;;;;;;15.48;11.20;;;2.50;99.90;;;;;;5134700;27;20055;-67
2021/12/07 03:29:47;;;;;;;19.23;14.25;;;2.50;99.90;;;;;;5136924;27;20042;-68
2021/12/07 03:32:13;;;;;;;17.38;12.75;;;2.50;99.90;;;;;;5136438;27;20047;-68
2021/12/07 03:34:39;;;;;;;17.77;12.70;;;2.50;99.90;;;;;;5136588;27;20027;-68
2021/12/07 03:37:04;;;;;;;19.08;13.63;;;2.50;99.90;;;;;;5136230;27;20038;-67
2021/12/07 03:39:30;;;;;;;19.10;13.15;;;2.60;99.90;;;;;;5136012;27;20035;-68
2021/12/07 03:41:56;;;;;;;18.60;13.70;;;2.60;99.90;;;;;;5136004;27;20046;-67
2021/12/07 03:44:22;;;;;;;18.33;13.43;;;2.60;99.90;;;;;;5136516;27;20093;-67
2021/12/07 03:46:47;;;;;;;22.15;14.35;;;2.60;99.90;;;;;;5134490;27;20092;-67
2021/12/07 03:49:13;;;;;;;19.00;13.75;;;2.60;99.90;;;;;;5136297;27;20123;-67
2021/12/07 03:51:39;;;;;;;20.33;14.15;;;2.60;99.90;;;;;;5136311;27;20125;-67
2021/12/07 03:54:06;;;;;;;22.63;14.27;;;2.60;99.90;;;;;;5136410;27;20031;-68
2021/12/07 03:56:32;;;;;;;21.30;14.38;;;2.50;99.90;;;;;;5135411;27;20043;-67
2021/12/07 03:58:58;;;;;;;21.77;14.32;;;2.50;99.90;;;;;;5135717;27;20170;-68
2021/12/07 04:01:24;;;;;;;20.15;14.13;;;2.60;99.90;;;;;;5135751;27;20050;-68
2021/12/07 04:03:52;;;;;;;21.27;14.93;;;2.60;99.90;;;;;;5135730;27;20034;-68
2021/12/07 04:06:18;;;;;;;22.63;15.73;;;2.50;99.90;;;;;;5134216;27;20035;-67
2021/12/07 04:08:45;;;;;;;22.45;15.60;;;2.50;99.90;;;;;;5134109;27;20561;-67
2021/12/07 04:11:11;;;;;;;21.52;14.55;;;2.50;99.90;;;;;;5133832;27;20039;-68
2021/12/07 04:13:37;;;;;;;22.60;15.05;;;2.60;99.90;;;;;;5135607;27;20035;-68
2021/12/07 04:16:05;;;;;;;22.38;14.52;;;2.50;99.90;;;;;;5135008;27;20515;-68
2021/12/07 04:18:30;;;;;;;21.30;14.43;;;2.50;99.90;;;;;;5134001;27;20039;-67
2021/12/07 04:20:57;;;;;;;22.05;15.20;;;2.50;99.90;;;;;;5135868;27;20088;-67
2021/12/07 04:23:23;;;;;;;20.55;14.48;;;2.60;99.90;;;;;;5135941;27;20042;-67
2021/12/07 04:25:49;;;;;;;20.08;14.90;;;2.60;99.90;;;;;;5135139;27;20127;-67
2021/12/07 04:28:14;;;;;;;22.20;15.35;;;2.60;99.90;;;;;;5135465;27;20118;-67
2021/12/07 04:30:42;;;;;;;20.63;13.95;;;2.60;99.90;;;;;;5135662;27;20041;-67
2021/12/07 04:33:10;;;;;;;21.15;13.38;;;2.60;99.90;;;;;;5134926;27;20039;-67
2021/12/07 04:35:38;;;;;;;19.02;13.85;;;2.60;99.90;;;;;;5133957;27;20051;-68
2021/12/07 04:38:03;;;;;;;21.88;15.85;;;2.60;99.90;;;;;;5135490;27;20031;-67
2021/12/07 04:40:30;;;;;;;19.58;12.32;;;2.60;99.90;;;;;;5134972;27;20114;-67
2021/12/07 04:42:57;;;;;;;17.55;13.00;;;2.60;99.90;;;;;;5133998;27;20068;-67
2021/12/07 04:45:35;;;;;;;18.77;13.43;;;2.60;99.90;;;;;;5134873;27;20499;-68
2021/12/07 04:58:47;;;;;;;17.73;12.23;;;2.30;99.90;;;;;;5075476;28;20048;-67
2021/12/07 05:01:13;;;;;;;18.45;12.98;;;2.30;99.90;;;;;;5126587;27;20058;-68
2021/12/07 05:03:41;;;;;;;17.30;12.65;;;2.30;99.90;;;;;;5134686;27;20396;-67
2021/12/07 05:06:09;;;;;;;18.77;12.00;;;2.30;99.90;;;;;;5132957;27;20492;-67
2021/12/07 05:08:44;;;;;;;18.50;13.38;;;2.30;99.90;;;;;;5133500;27;20078;-68
2021/12/07 05:11:26;;;;;;;18.63;12.30;;;2.30;99.90;;;;;;5134826;27;20039;-68
2021/12/07 05:14:10;;;;;;;19.08;12.93;;;2.20;99.90;;;;;;5135391;27;20046;-68
2021/12/07 05:24:26;;;;;;;17.92;12.50;;;2.10;99.90;;;;;;5133048;27;20047;-68
2021/12/07 05:40:23;;;;;;;18.05;12.52;;;2.10;99.90;;;;;;5133713;28;20054;-67
2021/12/07 05:42:49;;;;;;;17.52;11.35;;;2.00;99.90;;;;;;5134668;28;20054;-68
2021/12/07 05:45:19;;;;;;;16.92;10.75;;;2.00;99.90;;;;;;5134169;27;20039;-68
2021/12/07 05:47:46;;;;;;;15.80;11.18;;;2.00;99.90;;;;;;5133656;27;20074;-67
2021/12/07 05:50:18;;;;;;;16.30;11.18;;;2.00;99.90;;;;;;5133173;28;20067;-67
2021/12/07 05:52:43;;;;;;;15.68;10.25;;;2.00;99.90;;;;;;5134058;27;20047;-67
2021/12/07 05:55:09;;;;;;;15.18;10.07;;;2.00;99.90;;;;;;5133899;28;20096;-67
2021/12/07 05:57:36;;;;;;;18.02;11.52;;;2.00;99.90;;;;;;5133534;28;20047;-67
2021/12/07 06:00:05;;;;;;;15.63;10.55;;;2.00;99.90;;;;;;5133979;27;20473;-67
2021/12/07 06:02:31;;;;;;;15.80;10.23;;;2.00;99.90;;;;;;5134180;27;20406;-67
2021/12/07 06:04:57;;;;;;;17.45;11.15;;;2.00;99.90;;;;;;5134383;28;20477;-67
2021/12/07 06:07:22;;;;;;;19.90;11.18;;;2.00;99.90;;;;;;5132463;28;20054;-67
2021/12/07 06:09:48;;;;;;;15.82;10.40;;;2.00;99.90;;;;;;5134529;28;20027;-67
2021/12/07 06:12:13;;;;;;;20.17;11.98;;;2.00;99.90;;;;;;5133483;28;20046;-67
2021/12/07 06:14:43;;;;;;;17.80;10.43;;;2.00;99.90;;;;;;5133750;28;20039;-67
2021/12/07 06:17:09;;;;;;;18.80;11.20;;;2.00;99.90;;;;;;5133590;27;20041;-67
2021/12/07 06:19:35;;;;;;;17.35;10.10;;;2.00;99.90;;;;;;5133927;27;20054;-67
2021/12/07 06:22:01;;;;;;;15.95;9.90;;;2.00;99.90;;;;;;5133716;27;20500;-67
2021/12/07 06:24:26;;;;;;;15.65;9.20;;;2.00;99.90;;;;;;5133776;27;20043;-68
2021/12/07 06:26:52;;;;;;;13.43;8.52;;;2.00;99.90;;;;;;5133158;28;20446;-67
2021/12/07 06:29:18;;;;;;;16.55;9.32;;;2.00;99.90;;;;;;5133994;28;20043;-67
2021/12/07 06:31:44;;;;;;;20.77;10.73;;;2.00;99.90;;;;;;5132276;28;20404;-68
2021/12/07 06:34:10;;;;;;;12.40;7.95;;;2.10;99.90;;;;;;5135199;27;20035;-67
2021/12/07 06:36:37;;;;;;;12.57;8.38;;;2.00;99.90;;;;;;5137032;27;20539;-67
2021/12/07 06:39:06;;;;;;;13.77;8.48;;;2.10;99.90;;;;;;5137478;27;20039;-67
2021/12/07 06:41:31;;;;;;;15.80;9.45;;;2.00;99.90;;;;;;5137389;27;20047;-67
2021/12/07 06:43:57;;;;;;;13.27;8.65;;;2.00;99.90;;;;;;5137492;27;20062;-68
2021/12/07 06:46:22;;;;;;;13.93;8.50;;;2.10;99.90;;;;;;5137520;27;20049;-67
2021/12/07 06:48:48;;;;;;;14.75;8.63;;;2.00;99.90;;;;;;5137051;27;20035;-67
2021/12/07 06:51:14;;;;;;;16.55;9.65;;;2.00;99.90;;;;;;5135873;27;20043;-67
2021/12/07 06:53:40;;;;;;;16.80;9.63;;;2.00;99.90;;;;;;5135880;27;20088;-67
2021/12/07 06:56:07;;;;;;;22.20;10.90;;;2.00;99.90;;;;;;5136925;27;20031;-67
2021/12/07 06:58:34;;;;;;;17.10;9.50;;;2.00;99.90;;;;;;5135813;27;20039;-68
2021/12/07 07:01:00;;;;;;;17.27;9.27;;;2.00;99.90;;;;;;5137341;27;20039;-67
2021/12/07 07:03:26;;;;;;;18.50;10.27;;;2.00;99.90;;;;;;5136923;27;20074;-67
2021/12/07 07:05:52;;;;;;;15.93;9.18;;;2.00;99.90;;;;;;5136533;27;20067;-67
2021/12/07 07:08:19;;;;;;;16.27;8.98;;;2.00;99.90;;;;;;5136954;27;20049;-68
2021/12/07 07:10:45;;;;;;;15.65;8.70;;;2.00;99.90;;;;;;5135411;27;20035;-68
2021/12/07 07:13:12;;;;;;;14.70;8.05;;;2.00;99.90;;;;;;5136900;27;20118;-68
2021/12/07 07:15:38;;;;;;;16.73;9.45;;;2.00;99.90;;;;;;5136670;27;20496;-68
2021/12/07 07:18:04;;;;;;;14.90;8.52;;;2.00;99.90;;;;;;5135130;27;20113;-68
2021/12/07 07:20:31;;;;;;;18.63;10.07;;;2.10;99.90;;;;;;5136655;27;20035;-67
2021/12/07 07:22:56;;;;;;;16.60;9.10;;;2.00;99.90;;;;;;5136828;27;20042;-68
2021/12/07 07:25:22;;;;;;;18.17;9.75;;;2.10;99.90;;;;;;5136393;27;20035;-67
2021/12/07 07:27:48;;;;;;;15.77;8.50;;;2.00;99.90;;;;;;5135009;27;20042;-67
2021/12/07 07:30:17;;;;;;;16.88;10.20;;;2.10;99.90;;;;;;5135318;27;20047;-68
2021/12/07 07:32:43;;;;;;;17.98;9.30;;;2.10;99.90;;;;;;5136636;27;20484;-68
2021/12/07 07:35:11;;;;;;;20.42;8.77;;;2.10;99.90;;;;;;5136298;27;20552;-69
2021/12/07 07:37:37;;;;;;;19.02;9.88;;;2.20;99.90;;;;;;5134481;27;20050;-68
2021/12/07 07:40:05;;;;;;;22.80;10.20;;;2.20;99.90;;;;;;5135046;27;20057;-69
2021/12/07 07:42:31;;;;;;;23.55;11.75;;;2.20;99.90;;;;;;5135097;27;20057;-69
2021/12/07 07:44:56;;;;;;;21.20;9.77;;;2.30;99.90;;;;;;5136138;27;20122;-68
2021/12/07 07:47:22;;;;;;;21.15;10.25;;;2.30;99.90;;;;;;5135583;27;20114;-69
2021/12/07 07:49:47;;;;;;;18.98;10.30;;;2.30;99.90;;;;;;5136646;27;20103;-69
2021/12/07 07:52:14;;;;;;;19.05;9.35;;;2.30;99.90;;;;;;5136024;27;20039;-69
2021/12/07 07:54:39;;;;;;;14.35;8.10;;;2.40;99.90;;;;;;5134887;27;20035;-68
2021/12/07 07:57:05;;;;;;;17.45;9.82;;;2.40;99.90;;;;;;5135593;27;20114;-67
2021/12/07 07:59:30;;;;;;;22.27;10.05;;;2.40;99.90;;;;;;5135990;27;20441;-68
2021/12/07 08:01:56;;;;;;;18.52;8.82;;;2.50;99.90;;;;;;5136177;27;20043;-67
2021/12/07 08:04:22;;;;;;;20.90;9.02;;;2.50;99.90;;;;;;5135572;27;20039;-67
2021/12/07 08:06:47;;;;;;;18.63;9.75;;;2.60;99.90;;;;;;5136057;27;20148;-68
2021/12/07 08:09:13;;;;;;;20.98;10.20;;;2.60;99.90;;;;;;5136082;27;20078;-68
2021/12/07 08:11:39;;;;;;;19.55;9.60;;;2.60;99.90;;;;;;5135547;27;20043;-67
2021/12/07 08:14:05;;;;;;;19.83;10.23;;;2.70;99.90;;;;;;5134201;27;20370;-67
2021/12/07 08:16:31;;;;;;;18.13;9.80;;;2.60;99.90;;;;;;5134939;27;20027;-69
2021/12/07 08:18:57;;;;;;;19.67;9.48;;;2.70;99.90;;;;;;5135525;27;20043;-69
2021/12/07 08:21:22;;;;;;;19.45;9.50;;;2.70;99.90;;;;;;5135274;27;20070;-69
2021/12/07 08:23:49;;;;;;;16.52;9.05;;;2.80;99.90;;;;;;5135135;27;20039;-66
2021/12/07 08:26:22;;;;;;;15.77;10.43;;;2.80;99.90;;;;;;5133564;27;20035;-66
2021/12/07 08:28:49;;;;;;;17.83;8.60;;;2.80;99.90;;;;;;5135535;27;20477;-66
2021/12/07 08:31:15;;;;;;;13.98;8.25;;;2.80;99.90;;;;;;5135038;27;20043;-69
2021/12/07 08:33:41;;;;;;;16.98;8.40;;;2.90;99.90;;;;;;5133746;27;20046;-69
2021/12/07 08:36:07;;;;;;;16.77;8.80;;;2.90;99.90;;;;;;5134776;27;20032;-69
2021/12/07 08:38:32;;;;;;;15.55;8.88;;;3.00;99.90;;;;;;5135519;27;20063;-69
2021/12/07 08:40:58;;;;;;;16.38;8.98;;;3.00;99.90;;;;;;5135225;27;20074;-66
2021/12/07 08:43:27;;;;;;;19.20;7.80;;;3.10;99.90;;;;;;5135347;27;20035;-66
2021/12/07 08:45:53;;;;;;;15.05;9.27;;;3.10;99.90;;;;;;5134507;27;20488;-66
2021/12/07 08:48:20;;;;;;;20.95;8.88;;;3.10;99.90;;;;;;5134708;27;20035;-66
2021/12/07 08:50:46;;;;;;;14.77;8.02;;;3.10;99.90;;;;;;5133623;27;20050;-66
2021/12/07 08:53:15;;;;;;;21.10;9.50;;;3.10;99.90;;;;;;5134847;27;20035;-66
2021/12/07 09:01:13;;;;;;;18.00;8.15;;;3.20;99.90;;;;;;5134979;27;20047;-66
2021/12/07 09:03:39;;;;;;;16.17;7.95;;;3.20;99.90;;;;;;5134970;27;20422;-66
2021/12/07 09:06:05;;;;;;;17.25;8.52;;;3.20;99.90;;;;;;5134428;27;20027;-67
2021/12/07 09:08:31;;;;;;;19.60;8.75;;;3.20;99.90;;;;;;5133610;27;20484;-66
2021/12/07 09:10:57;;;;;;;15.27;8.35;;;3.20;99.90;;;;;;5133839;27;20408;-69
2021/12/07 09:13:24;;;;;;;21.40;9.07;;;3.20;99.90;;;;;;5134514;27;20039;-66
2021/12/07 09:15:51;;;;;;;21.40;8.50;;;3.20;99.90;;;;;;5134071;27;20117;-67
2021/12/07 09:18:17;;;;;;;23.00;11.02;;;3.20;99.90;;;;;;5133346;27;20043;-67
2021/12/07 09:20:43;;;;;;;17.88;9.70;;;3.20;99.90;;;;;;5134531;27;20031;-67
2021/12/07 09:23:09;;;;;;;16.70;8.50;;;3.20;99.90;;;;;;5133839;27;20047;-67
2021/12/07 09:25:35;;;;;;;16.02;8.57;;;3.20;99.90;;;;;;5134295;27;20047;-67
2021/12/07 09:28:01;;;;;;;22.55;9.38;;;3.20;99.90;;;;;;5133657;27;20487;-67
2021/12/07 09:30:26;;;;;;;15.85;8.77;;;3.30;99.90;;;;;;5132922;28;20118;-67
2021/12/07 09:32:52;;;;;;;16.10;9.73;;;3.20;99.90;;;;;;5132895;28;20052;-66
2021/12/07 09:35:18;;;;;;;15.50;8.82;;;3.30;99.90;;;;;;5134199;28;20035;-67
2021/12/07 09:37:44;;;;;;;16.98;8.77;;;3.30;99.90;;;;;;5133863;28;20517;-68
2021/12/07 09:40:15;;;;;;;16.75;8.63;;;3.40;99.90;;;;;;5134649;28;20386;-67
2021/12/07 09:42:41;;;;;;;19.38;10.25;;;3.30;99.90;;;;;;5134349;27;20114;-67
2021/12/07 09:45:08;;;;;;;22.23;9.32;;;3.40;99.90;;;;;;5134491;27;20035;-67
2021/12/07 09:47:34;;;;;;;16.67;8.52;;;3.40;99.90;;;;;;5132544;28;20055;-67
2021/12/07 09:50:00;;;;;;;15.15;8.60;;;3.40;99.90;;;;;;5134979;28;20097;-67
2021/12/07 09:52:27;;;;;;;18.70;9.30;;;3.40;99.90;;;;;;5133983;27;20035;-67
2021/12/07 09:54:54;;;;;;;18.42;10.35;;;3.50;99.90;;;;;;5133825;27;20037;-67
2021/12/07 09:57:21;;;;;;;23.42;11.27;;;3.50;99.90;;;;;;5133900;27;20035;-67
2021/12/07 09:59:47;;;;;;;22.20;10.93;;;3.60;99.90;;;;;;5132657;28;20035;-67
2021/12/07 10:02:13;;;;;;;19.42;9.50;;;3.70;99.90;;;;;;5134377;28;20039;-67
2021/12/07 10:04:39;;;;;;;19.02;10.30;;;3.80;99.90;;;;;;5132505;28;20405;-66
2021/12/07 10:07:08;;;;;;;22.95;9.82;;;3.80;99.90;;;;;;5133430;28;20081;-67
2021/12/07 10:09:35;;;;;;;20.75;9.52;;;3.90;99.90;;;;;;5137514;27;20050;-69
2021/12/07 10:12:01;;;;;;;27.48;10.10;;;3.90;99.90;;;;;;5136735;27;20464;-68
2021/12/07 10:14:40;;;;;;;20.95;10.15;;;3.90;99.90;;;;;;5137955;27;20212;-68
2021/12/07 10:17:06;;;;;;;21.75;9.90;;;3.90;99.90;;;;;;5137796;27;20039;-68
2021/12/07 10:19:35;;;;;;;20.25;9.02;;;3.90;99.90;;;;;;5137893;27;20111;-68
2021/12/07 10:22:04;;;;;;;16.17;10.93;;;4.00;99.90;;;;;;5137497;27;20039;-68
2021/12/07 10:24:39;;;;;;;29.73;12.15;;;4.00;99.90;;;;;;5137847;27;20054;-68
2021/12/07 10:27:06;;;;;;;21.73;11.13;;;4.00;99.90;;;;;;5136280;27;20102;-67
2021/12/07 10:29:33;;;;;;;25.77;11.80;;;4.00;99.90;;;;;;5137695;27;20125;-68
2021/12/07 10:32:02;;;;;;;24.05;11.23;;;4.00;99.90;;;;;;5137662;27;20566;-68
2021/12/07 10:34:34;;;;;;;22.73;10.18;;;4.10;99.90;;;;;;5137583;27;20039;-68
2021/12/07 10:37:13;;;;;;;22.15;10.20;;;4.10;99.90;;;;;;5118409;27;20484;-68
2021/12/07 10:39:44;;;;;;;19.48;8.60;;;4.10;99.90;;;;;;5136384;27;20031;-68
2021/12/07 10:42:18;;;;;;;27.10;9.38;;;4.20;99.90;;;;;;5137465;27;20469;-68
2021/12/07 10:44:44;;;;;;;21.40;9.77;;;4.20;99.90;;;;;;5137212;27;20127;-68
2021/12/07 10:47:14;;;;;;;21.85;9.77;;;4.30;99.90;;;;;;5136978;27;20155;-68
2021/12/07 10:49:46;;;;;;;20.23;8.98;;;4.30;99.90;;;;;;5137508;27;20076;-68
2021/12/07 10:52:32;;;;;;;18.35;8.30;;;4.40;99.90;;;;;;5137377;27;20047;-68
2021/12/07 10:55:04;;;;;;;23.88;8.02;;;4.40;99.90;;;;;;5137223;27;20110;-67
2021/12/07 10:57:38;;;;;;;21.55;10.00;;;4.40;99.90;;;;;;5135219;27;20433;-68
2021/12/07 11:00:22;;;;;;;19.48;8.98;;;4.40;99.90;;;;;;5135720;27;20039;-68
2021/12/07 11:02:53;;;;;;;22.23;8.38;;;4.40;99.90;;;;;;5136750;27;20507;-68
2021/12/07 11:05:35;;;;;;;19.20;8.30;;;4.50;99.90;;;;;;5114935;28;20442;-68
2021/12/07 11:08:05;;;;;;;19.38;8.05;;;4.60;99.90;;;;;;5116958;28;20043;-69
2021/12/07 11:10:38;;;;;;;18.35;7.07;;;4.60;99.90;;;;;;5116334;28;20072;-69
2021/12/07 11:13:13;;;;;;;17.77;8.52;;;4.60;99.90;;;;;;5115554;27;20055;-69
2021/12/07 11:16:02;;;;;;;17.05;8.23;;;4.60;99.90;;;;;;5115807;28;20047;-69
2021/12/07 11:18:29;;;;;;;17.58;8.77;;;4.60;99.90;;;;;;5116362;28;20494;-69
2021/12/07 11:20:59;;;;;;;18.58;7.70;;;4.60;99.90;;;;;;5115436;28;20039;-68
2021/12/07 11:23:32;;;;;;;23.38;8.60;;;4.70;99.90;;;;;;5116566;28;20036;-69
2021/12/07 11:31:25;;;;;;;19.88;7.53;;;4.70;99.90;;;;;;5114379;28;19916;-69
2021/12/07 11:33:54;;;;;;;19.45;7.85;;;4.70;99.90;;;;;;5114602;28;20493;-69
2021/12/07 11:36:29;;;;;;;19.10;7.80;;;4.80;99.90;;;;;;5114121;28;20446;-69
2021/12/07 11:38:56;;;;;;;18.15;8.02;;;4.80;99.90;;;;;;5115758;28;20515;-69
2021/12/07 11:41:32;;;;;;;22.20;7.70;;;4.90;99.90;;;;;;5115384;28;20039;-69
2021/12/07 11:44:08;;;;;;;18.15;7.82;;;4.90;99.90;;;;;;5115502;28;20385;-69
2021/12/07 11:46:36;;;;;;;15.88;7.05;;;4.90;99.90;;;;;;5115222;28;20047;-69
2021/12/07 11:49:10;;;;;;;19.70;7.47;;;4.90;99.90;;;;;;5115559;28;20035;-68
2021/12/07 11:51:36;;;;;;;;;;;5.00;99.90;;;;;;5097456;28;20058;-70
2021/12/07 11:54:03;;;;;;;17.90;8.15;;;5.00;99.90;;;;;;5115439;28;19915;-69
2021/12/07 11:56:30;;;;;;;20.88;7.45;;;5.00;99.90;;;;;;5115078;28;20043;-69
2021/12/07 11:58:56;;;;;;;17.02;6.97;;;5.00;99.90;;;;;;5114123;28;20122;-68
2021/12/07 12:01:22;;;;;;;19.17;7.20;;;5.10;99.90;;;;;;5115486;28;20106;-69
2021/12/07 12:03:47;;;;;;;15.68;5.90;;;5.00;99.90;;;;;;5113775;28;20032;-68
2021/12/07 12:06:13;;;;;;;20.60;7.53;;;5.10;99.90;;;;;;5115150;28;20125;-69
2021/12/07 12:08:40;;;;;;;18.85;7.07;;;5.10;99.90;;;;;;5113675;28;20039;-69
2021/12/07 12:11:36;;;;;;;21.45;7.57;;;5.10;99.90;;;;;;5114874;28;20031;-69
2021/12/07 12:14:33;;;;;;;16.17;8.40;;;5.10;99.90;;;;;;5114801;28;20065;-68
2021/12/07 12:17:40;;;;;;;21.83;6.10;;;5.10;99.90;;;;;;5113563;28;20043;-69
2021/12/07 12:20:25;;;;;;;16.23;6.75;;;5.20;99.90;;;;;;5115106;28;20401;-68
2021/12/07 12:23:22;;;;;;;15.75;7.72;;;5.20;99.90;;;;;;5096403;28;20079;-69
2021/12/07 12:25:59;;;;;;;19.30;7.40;;;5.20;99.90;;;;;;5114255;28;20046;-69
2021/12/07 12:28:40;;;;;;;14.52;6.85;;;5.20;99.90;;;;;;5113842;28;20096;-69
2021/12/07 12:31:08;;;;;;;15.32;6.57;;;5.20;99.90;;;;;;5114251;28;20044;-69
2021/12/07 12:34:13;;;;;;;14.07;6.00;;;5.20;99.90;;;;;;5114279;28;20504;-69
2021/12/07 12:36:38;;;;;;;;;;;5.30;99.90;;;;;;5101621;28;20456;-69
2021/12/07 12:39:07;;;;;;;12.55;6.20;;;5.30;99.90;;;;;;5114828;28;19959;-69
2021/12/07 12:41:33;;;;;;;12.02;6.30;;;5.30;99.90;;;;;;5114216;28;20042;-69
2021/12/07 12:44:08;;;;;;;16.73;5.82;;;5.30;99.90;;;;;;5114499;28;20028;-70
2021/12/07 12:46:37;;;;;;;15.30;6.57;;;5.30;99.90;;;;;;5113965;28;20493;-69
2021/12/07 12:49:10;;;;;;;15.82;6.55;;;5.30;99.90;;;;;;5114482;28;20380;-69
2021/12/07 12:51:48;;;;;;;15.65;5.38;;;5.30;99.90;;;;;;5113108;28;20044;-70
2021/12/07 12:54:14;;;;;;;13.70;5.97;;;5.30;99.90;;;;;;5114509;28;20136;-68
2021/12/07 12:56:40;;;;;;;16.23;6.05;;;5.40;99.90;;;;;;5113529;28;20027;-69
2021/12/07 12:59:09;;;;;;;14.40;7.38;;;5.40;99.90;;;;;;5112650;28;20071;-67
2021/12/07 13:01:42;;;;;;;13.90;7.05;;;5.40;99.90;;;;;;5114195;28;20039;-69
2021/12/07 13:04:22;;;;;;;15.45;6.07;;;5.30;99.90;;;;;;5114494;28;20036;-68
2021/12/07 13:09:39;;;;;;;21.70;6.22;;;5.30;99.90;;;;;;5111551;28;20050;-71
2021/12/07 13:12:07;;;;;;;12.80;5.57;;;5.40;99.90;;;;;;5112689;27;20055;-72
2021/12/07 13:14:49;;;;;;;10.18;5.60;;;5.30;99.90;;;;;;5113817;28;20035;-71
2021/12/07 13:17:21;;;;;;;14.00;6.70;;;5.40;99.90;;;;;;5113272;28;20380;-72
2021/12/07 13:20:20;;;;;;;13.35;6.40;;;5.40;99.90;;;;;;5112944;28;20039;-71
2021/12/07 13:22:49;;;;;;;16.83;6.93;;;5.40;99.90;;;;;;5113889;28;20047;-71
2021/12/07 13:25:20;;;;;;;22.38;6.53;;;5.40;99.90;;;;;;5113498;28;20084;-71
2021/12/07 13:28:11;;;;;;;16.10;5.80;;;5.40;99.90;;;;;;5112203;28;20043;-71
2021/12/07 13:30:50;;;;;;;15.52;6.57;;;5.50;99.90;;;;;;5113578;27;20070;-71
2021/12/07 13:33:31;;;;;;;10.15;6.03;;;5.50;99.90;;;;;;5112244;28;20126;-70
2021/12/07 13:35:58;;;;;;;13.30;6.18;;;5.50;99.90;;;;;;5113775;28;20044;-71
2021/12/07 13:38:27;;;;;;;21.02;7.38;;;5.50;99.90;;;;;;5112331;28;20469;-71
2021/12/07 13:41:13;;;;;;;17.33;7.10;;;5.40;99.90;;;;;;5113723;28;20086;-71
2021/12/07 13:43:40;;;;;;;18.65;7.53;;;5.40;99.90;;;;;;5114725;28;20047;-71
2021/12/07 13:46:15;;;;;;;21.20;6.35;;;5.40;99.90;;;;;;5115845;28;20554;-71
2021/12/07 13:48:42;;;;;;;13.02;6.70;;;5.40;99.90;;;;;;5116355;28;20085;-71
2021/12/07 13:51:10;;;;;;;18.42;7.03;;;5.40;99.90;;;;;;5116166;28;20515;-71
2021/12/07 13:53:38;;;;;;;16.77;6.72;;;5.40;99.90;;;;;;5116348;28;20062;-71
2021/12/07 13:56:05;;;;;;;18.27;6.70;;;5.40;99.90;;;;;;5116647;27;20093;-71
2021/12/07 13:58:47;;;;;;;14.57;6.13;;;5.40;99.90;;;;;;5116256;28;20031;-71
2021/12/07 14:01:13;;;;;;;13.65;6.97;;;5.40;99.90;;;;;;5117702;28;20036;-71
2021/12/07 14:03:43;;;;;;;10.70;6.47;;;5.40;99.90;;;;;;5116290;28;20047;-71
2021/12/07 14:06:09;;;;;;;15.30;7.07;;;5.40;99.90;;;;;;5115935;28;20506;-71
2021/12/07 14:08:34;;;;;;;14.55;5.93;;;5.40;99.90;;;;;;5117573;28;20043;-71
2021/12/07 14:11:00;;;;;;;17.80;6.63;;;5.40;99.90;;;;;;5117339;28;20082;-71
2021/12/07 14:13:25;;;;;;;14.43;6.68;;;5.30;99.90;;;;;;5116138;28;20426;-71
2021/12/07 14:15:51;;;;;;;15.27;6.85;;;5.30;99.90;;;;;;5116746;28;20032;-72
2021/12/07 14:18:22;;;;;;;18.85;8.55;;;5.20;99.90;;;;;;5116019;28;20115;-71
2021/12/07 14:20:57;;;;;;;15.80;7.35;;;5.20;99.90;;;;;;5116982;28;20110;-71
2021/12/07 14:23:25;;;;;;;19.90;7.65;;;5.20;99.90;;;;;;5115516;28;20758;-71
2021/12/07 14:25:53;;;;;;;22.60;7.45;;;5.10;99.90;;;;;;5116944;28;20122;-72
2021/12/07 14:28:26;;;;;;;18.65;8.05;;;5.10;99.90;;;;;;5117236;28;20115;-71
2021/12/07 14:30:52;;;;;;;19.58;8.63;;;5.10;99.90;;;;;;5117079;28;20043;-71
2021/12/07 14:33:18;;;;;;;19.13;7.68;;;5.10;99.90;;;;;;5115402;28;20456;-71